EZY25PX LGKR-EGNT
Flight info
| Callsign | EZY25PX |
|---|---|
| Flight time | 3h 25m |
| Altitude | 32000 |
| Route | OLGAT DCT CRAYE/N0448F340 DCT GISAM DCT SIMBA/N0441F360 DCT GASKA DCT MASEK DCT SPY DCT MIMVA L602 NALAX L46 RIMTO |
| Aircraft | A320/M-SDE3FGHIRWY/LB1 |
Departure
| Time | 2026-05-04 11:19 |
|---|---|
| Airport | Corfu Ioannis Kapodistrias International Airport (LGKR) |
Arrival
| Time | 2026-05-04 14:44 |
|---|---|
| Airport | Newcastle International Airport (EGNT) |
| Time | Latitude | Longitude | Altitude | Speed | Heading |
|---|---|---|---|---|---|
| 2026-05-04 10:16 | 39.60762 | 19.91341 | 19 ft | 0 kts | 80° |
| 2026-05-04 11:01 | 39.60731 | 19.91212 | 22 ft | 3 kts | 8° |
| 2026-05-04 11:02 | 39.60710 | 19.91214 | 20 ft | 3 kts | 348° |
| 2026-05-04 11:02 | 39.60700 | 19.91217 | 19 ft | 0 kts | 348° |
| 2026-05-04 11:06 | 39.60711 | 19.91214 | 20 ft | 4 kts | 349° |
| 2026-05-04 11:08 | 39.61047 | 19.91124 | 21 ft | 5 kts | 347° |
| 2026-05-04 11:10 | 39.61120 | 19.91106 | 19 ft | 0 kts | 349° |
| 2026-05-04 11:13 | 39.61127 | 19.91104 | 19 ft | 1 kts | 349° |
| 2026-05-04 11:16 | 39.61233 | 19.90999 | 22 ft | 5 kts | 289° |
| 2026-05-04 11:16 | 39.61238 | 19.90959 | 21 ft | 4 kts | 268° |
| 2026-05-04 11:16 | 39.61204 | 19.90948 | 21 ft | 6 kts | 163° |
| 2026-05-04 11:17 | 39.61203 | 19.90948 | 21 ft | 0 kts | 163° |
| 2026-05-04 11:17 | 39.61043 | 19.90995 | 20 ft | 59 kts | 168° |
| 2026-05-04 11:19 | 39.55049 | 19.96551 | 2292 ft | 221 kts | 142° |
| 2026-05-04 11:19 | 39.53828 | 19.97789 | 2904 ft | 226 kts | 142° |
| 2026-05-04 11:19 | 39.52576 | 19.99052 | 3551 ft | 230 kts | 141° |
| 2026-05-04 11:19 | 39.51299 | 20.00342 | 4199 ft | 235 kts | 141° |
| 2026-05-04 11:20 | 39.50133 | 20.01832 | 4845 ft | 238 kts | 120° |
| 2026-05-04 11:20 | 39.49557 | 20.03813 | 5487 ft | 236 kts | 92° |
| 2026-05-04 11:20 | 39.49704 | 20.05888 | 6159 ft | 230 kts | 66° |
| 2026-05-04 11:20 | 39.50497 | 20.07646 | 6829 ft | 225 kts | 42° |
| 2026-05-04 11:22 | 39.60966 | 20.10825 | 11546 ft | 226 kts | 8° |
| 2026-05-04 11:22 | 39.62522 | 20.11148 | 12187 ft | 227 kts | 8° |
| 2026-05-04 11:23 | 39.64087 | 20.11473 | 12838 ft | 228 kts | 7° |
| 2026-05-04 11:23 | 39.65662 | 20.11797 | 13484 ft | 230 kts | 6° |
| 2026-05-04 11:24 | 39.76977 | 20.08940 | 14737 ft | 330 kts | 348° |
| 2026-05-04 11:25 | 39.79237 | 20.08273 | 15233 ft | 335 kts | 347° |
| 2026-05-04 11:25 | 39.81494 | 20.07607 | 15783 ft | 338 kts | 347° |
| 2026-05-04 11:25 | 39.83824 | 20.06920 | 16361 ft | 340 kts | 347° |
| 2026-05-04 11:26 | 39.88467 | 20.05548 | 17515 ft | 344 kts | 347° |
| 2026-05-04 11:27 | 40.05107 | 20.00610 | 20854 ft | 359 kts | 347° |
| 2026-05-04 11:28 | 40.07548 | 19.99885 | 21306 ft | 362 kts | 347° |
| 2026-05-04 11:28 | 40.10004 | 19.99152 | 21781 ft | 363 kts | 347° |
| 2026-05-04 11:28 | 40.12475 | 19.98418 | 22255 ft | 365 kts | 347° |
| 2026-05-04 11:28 | 40.14959 | 19.97680 | 22570 ft | 368 kts | 347° |
| 2026-05-04 11:29 | 40.17461 | 19.96932 | 23044 ft | 369 kts | 347° |
| 2026-05-04 11:29 | 40.19967 | 19.96183 | 23444 ft | 370 kts | 347° |
| 2026-05-04 11:29 | 40.22483 | 19.95429 | 23848 ft | 372 kts | 347° |
| 2026-05-04 11:29 | 40.25012 | 19.94669 | 24201 ft | 374 kts | 347° |
| 2026-05-04 11:31 | 40.42976 | 19.89287 | 26508 ft | 383 kts | 346° |
| 2026-05-04 11:33 | 40.61223 | 19.82976 | 28636 ft | 392 kts | 341° |
| 2026-05-04 11:33 | 40.63819 | 19.81846 | 28917 ft | 394 kts | 341° |
| 2026-05-04 11:33 | 40.66421 | 19.80711 | 29173 ft | 395 kts | 341° |
| 2026-05-04 11:34 | 40.69038 | 19.79568 | 29384 ft | 397 kts | 341° |
| 2026-05-04 11:34 | 40.71667 | 19.78420 | 29614 ft | 399 kts | 341° |
| 2026-05-04 11:34 | 40.74309 | 19.77268 | 29867 ft | 401 kts | 341° |
| 2026-05-04 11:34 | 40.76960 | 19.76113 | 30117 ft | 402 kts | 341° |
| 2026-05-04 11:35 | 40.82269 | 19.73789 | 30134 ft | 399 kts | 341° |
| 2026-05-04 11:35 | 40.84858 | 19.72653 | 30139 ft | 388 kts | 341° |
| 2026-05-04 11:35 | 40.87406 | 19.71535 | 30142 ft | 384 kts | 341° |
| 2026-05-04 11:36 | 40.92523 | 19.69286 | 30340 ft | 392 kts | 341° |
| 2026-05-04 11:36 | 40.95111 | 19.68145 | 30575 ft | 392 kts | 341° |
| 2026-05-04 11:36 | 40.97696 | 19.67004 | 30864 ft | 392 kts | 341° |
| 2026-05-04 11:37 | 41.00278 | 19.65865 | 31173 ft | 391 kts | 341° |
| 2026-05-04 11:37 | 41.02854 | 19.64732 | 31480 ft | 390 kts | 341° |
| 2026-05-04 11:37 | 41.05424 | 19.63602 | 31779 ft | 389 kts | 341° |
| 2026-05-04 11:37 | 41.07989 | 19.62471 | 32061 ft | 389 kts | 341° |
| 2026-05-04 11:38 | 41.13112 | 19.60207 | 32147 ft | 387 kts | 341° |
| 2026-05-04 11:38 | 41.18220 | 19.57944 | 32146 ft | 387 kts | 341° |
| 2026-05-04 11:39 | 41.23355 | 19.55662 | 32288 ft | 391 kts | 340° |
| 2026-05-04 11:40 | 41.38830 | 19.48762 | 33076 ft | 392 kts | 340° |
| 2026-05-04 11:41 | 41.41448 | 19.47592 | 33221 ft | 392 kts | 340° |
| 2026-05-04 11:41 | 41.44031 | 19.46440 | 33353 ft | 391 kts | 340° |
| 2026-05-04 11:41 | 41.46611 | 19.45289 | 33456 ft | 391 kts | 340° |
| 2026-05-04 11:41 | 41.49157 | 19.44149 | 33592 ft | 391 kts | 340° |
| 2026-05-04 11:42 | 41.51768 | 19.42980 | 33727 ft | 391 kts | 340° |
| 2026-05-04 11:42 | 41.54348 | 19.41822 | 33863 ft | 391 kts | 340° |
| 2026-05-04 11:42 | 41.56933 | 19.40660 | 34010 ft | 393 kts | 340° |
| 2026-05-04 11:42 | 41.59531 | 19.39493 | 34203 ft | 394 kts | 340° |
| 2026-05-04 11:43 | 41.62129 | 19.38329 | 34410 ft | 394 kts | 340° |
| 2026-05-04 11:43 | 41.64731 | 19.37162 | 34629 ft | 394 kts | 340° |
| 2026-05-04 11:43 | 41.67332 | 19.35989 | 34814 ft | 395 kts | 340° |
| 2026-05-04 11:43 | 41.69933 | 19.34819 | 35001 ft | 395 kts | 340° |
| 2026-05-04 11:44 | 41.72537 | 19.33646 | 35182 ft | 395 kts | 340° |
| 2026-05-04 11:44 | 41.75139 | 19.32469 | 35375 ft | 395 kts | 340° |
| 2026-05-04 11:44 | 41.77745 | 19.31284 | 35544 ft | 395 kts | 340° |
| 2026-05-04 11:44 | 41.80329 | 19.30014 | 35685 ft | 396 kts | 338° |
| 2026-05-04 11:45 | 41.82893 | 19.28650 | 35815 ft | 397 kts | 337° |
| 2026-05-04 11:45 | 41.85445 | 19.27231 | 35968 ft | 397 kts | 337° |
| 2026-05-04 11:45 | 41.87993 | 19.25794 | 36118 ft | 398 kts | 337° |
| 2026-05-04 11:46 | 41.93105 | 19.22944 | 36149 ft | 398 kts | 337° |
| 2026-05-04 11:46 | 41.98242 | 19.20147 | 36148 ft | 399 kts | 338° |
| 2026-05-04 11:47 | 42.03385 | 19.17359 | 36143 ft | 399 kts | 338° |
| 2026-05-04 11:47 | 42.08506 | 19.14573 | 36149 ft | 399 kts | 338° |
| 2026-05-04 11:48 | 42.13691 | 19.11748 | 36138 ft | 399 kts | 337° |
| 2026-05-04 11:48 | 42.18812 | 19.08949 | 36139 ft | 400 kts | 337° |
| 2026-05-04 11:49 | 42.24005 | 19.06100 | 36135 ft | 400 kts | 337° |
| 2026-05-04 11:49 | 42.29162 | 19.03269 | 36142 ft | 400 kts | 337° |
| 2026-05-04 11:50 | 42.34330 | 19.00429 | 36137 ft | 401 kts | 337° |
| 2026-05-04 11:50 | 42.39504 | 18.97582 | 36141 ft | 401 kts | 337° |
| 2026-05-04 11:51 | 42.43803 | 18.95207 | 36147 ft | 402 kts | 337° |
| 2026-05-04 11:51 | 42.48977 | 18.92330 | 36144 ft | 402 kts | 337° |
| 2026-05-04 11:52 | 42.54165 | 18.89453 | 36134 ft | 403 kts | 337° |
| 2026-05-04 11:52 | 42.59364 | 18.86579 | 36134 ft | 404 kts | 337° |
| 2026-05-04 11:53 | 42.64565 | 18.83698 | 36131 ft | 404 kts | 337° |
| 2026-05-04 11:53 | 42.69771 | 18.80808 | 36123 ft | 405 kts | 337° |
| 2026-05-04 11:55 | 42.90646 | 18.69123 | 36127 ft | 406 kts | 337° |
| 2026-05-04 11:56 | 42.95881 | 18.66188 | 36126 ft | 407 kts | 337° |
| 2026-05-04 11:56 | 43.01122 | 18.63239 | 36126 ft | 408 kts | 337° |
| 2026-05-04 11:57 | 43.06364 | 18.60282 | 36129 ft | 408 kts | 337° |
| 2026-05-04 11:57 | 43.11612 | 18.57311 | 36134 ft | 408 kts | 337° |
| 2026-05-04 11:58 | 43.16532 | 18.53484 | 36130 ft | 409 kts | 323° |
| 2026-05-04 11:58 | 43.21077 | 18.48787 | 36125 ft | 409 kts | 323° |
| 2026-05-04 11:59 | 43.25631 | 18.44090 | 36128 ft | 410 kts | 323° |
| 2026-05-04 11:59 | 43.30180 | 18.39377 | 36118 ft | 410 kts | 323° |
| 2026-05-04 12:00 | 43.34729 | 18.34649 | 36127 ft | 410 kts | 323° |
| 2026-05-04 12:00 | 43.39278 | 18.29917 | 36135 ft | 410 kts | 323° |
| 2026-05-04 12:01 | 43.43826 | 18.25178 | 36138 ft | 410 kts | 323° |
| 2026-05-04 12:02 | 43.59729 | 18.08514 | 36123 ft | 411 kts | 323° |
| 2026-05-04 12:03 | 43.64286 | 18.03721 | 36126 ft | 413 kts | 323° |
| 2026-05-04 12:03 | 43.68852 | 17.98914 | 36124 ft | 413 kts | 323° |
| 2026-05-04 12:04 | 43.73417 | 17.94098 | 36125 ft | 413 kts | 323° |
| 2026-05-04 12:04 | 43.77980 | 17.89270 | 36129 ft | 413 kts | 323° |
| 2026-05-04 12:05 | 43.82561 | 17.84456 | 36111 ft | 414 kts | 324° |
| 2026-05-04 12:05 | 43.87345 | 17.80015 | 36115 ft | 414 kts | 328° |
| 2026-05-04 12:06 | 43.92235 | 17.75773 | 36109 ft | 414 kts | 328° |
| 2026-05-04 12:06 | 43.97069 | 17.71510 | 36114 ft | 415 kts | 327° |
| 2026-05-04 12:07 | 44.01937 | 17.67111 | 36119 ft | 415 kts | 327° |
| 2026-05-04 12:07 | 44.06770 | 17.62712 | 36104 ft | 415 kts | 327° |
| 2026-05-04 12:08 | 44.11607 | 17.58308 | 36104 ft | 416 kts | 327° |
| 2026-05-04 12:08 | 44.16424 | 17.53928 | 36108 ft | 416 kts | 327° |
| 2026-05-04 12:09 | 44.21273 | 17.49513 | 36103 ft | 416 kts | 327° |
| 2026-05-04 12:09 | 44.26118 | 17.45086 | 36105 ft | 417 kts | 327° |
| 2026-05-04 12:10 | 44.30974 | 17.40638 | 36089 ft | 418 kts | 327° |
| 2026-05-04 12:10 | 44.35832 | 17.36182 | 36096 ft | 418 kts | 326° |
| 2026-05-04 12:11 | 44.40685 | 17.31715 | 36095 ft | 418 kts | 326° |
| 2026-05-04 12:11 | 44.45543 | 17.27240 | 36105 ft | 418 kts | 327° |
| 2026-05-04 12:12 | 44.50405 | 17.22762 | 36100 ft | 418 kts | 327° |
| 2026-05-04 12:12 | 44.55269 | 17.18264 | 36097 ft | 419 kts | 326° |
| 2026-05-04 12:14 | 44.74713 | 17.00191 | 36090 ft | 419 kts | 326° |
| 2026-05-04 12:15 | 44.79577 | 16.95659 | 36092 ft | 419 kts | 326° |
| 2026-05-04 12:15 | 44.84441 | 16.91105 | 36086 ft | 419 kts | 326° |
| 2026-05-04 12:16 | 44.89297 | 16.86546 | 36092 ft | 419 kts | 326° |
| 2026-05-04 12:16 | 44.94133 | 16.81998 | 36093 ft | 419 kts | 326° |
| 2026-05-04 12:17 | 44.98985 | 16.77419 | 36091 ft | 420 kts | 326° |
| 2026-05-04 12:17 | 45.03841 | 16.72828 | 36085 ft | 420 kts | 326° |
| 2026-05-04 12:18 | 45.08700 | 16.68228 | 36081 ft | 420 kts | 326° |
| 2026-05-04 12:18 | 45.13557 | 16.63636 | 36080 ft | 419 kts | 326° |
| 2026-05-04 12:19 | 45.18403 | 16.59042 | 36086 ft | 420 kts | 326° |
| 2026-05-04 12:19 | 45.23229 | 16.54381 | 36079 ft | 420 kts | 324° |
| 2026-05-04 12:20 | 45.27838 | 16.49284 | 36081 ft | 420 kts | 321° |
| 2026-05-04 12:20 | 45.32330 | 16.43971 | 36073 ft | 420 kts | 320° |
| 2026-05-04 12:21 | 45.36836 | 16.38683 | 36076 ft | 420 kts | 320° |
| 2026-05-04 12:21 | 45.41386 | 16.33466 | 36078 ft | 420 kts | 321° |
| 2026-05-04 12:22 | 45.45948 | 16.28262 | 36078 ft | 420 kts | 321° |
| 2026-05-04 12:22 | 45.50504 | 16.23032 | 36074 ft | 420 kts | 321° |
| 2026-05-04 12:23 | 45.55053 | 16.17786 | 36067 ft | 421 kts | 321° |
| 2026-05-04 12:23 | 45.59608 | 16.12526 | 36062 ft | 421 kts | 320° |
| 2026-05-04 12:24 | 45.64159 | 16.07253 | 36062 ft | 422 kts | 320° |
| 2026-05-04 12:24 | 45.68715 | 16.01969 | 36063 ft | 422 kts | 320° |
| 2026-05-04 12:25 | 45.73269 | 15.96667 | 36080 ft | 422 kts | 320° |
| 2026-05-04 12:25 | 45.77827 | 15.91361 | 36061 ft | 422 kts | 320° |
| 2026-05-04 12:26 | 45.82385 | 15.86049 | 36051 ft | 423 kts | 320° |
| 2026-05-04 12:26 | 45.86938 | 15.80709 | 36059 ft | 423 kts | 320° |
| 2026-05-04 12:27 | 45.91496 | 15.75355 | 36056 ft | 423 kts | 320° |
| 2026-05-04 12:27 | 45.96052 | 15.69983 | 36056 ft | 424 kts | 320° |
| 2026-05-04 12:28 | 46.00616 | 15.64615 | 36053 ft | 424 kts | 320° |
| 2026-05-04 12:28 | 46.05175 | 15.59239 | 36055 ft | 424 kts | 319° |
| 2026-05-04 12:29 | 46.09731 | 15.53840 | 36059 ft | 424 kts | 319° |
| 2026-05-04 12:29 | 46.14283 | 15.48438 | 36068 ft | 424 kts | 319° |
| 2026-05-04 12:30 | 46.18838 | 15.43028 | 36063 ft | 424 kts | 319° |
| 2026-05-04 12:30 | 46.23391 | 15.37616 | 36062 ft | 424 kts | 319° |
| 2026-05-04 12:31 | 46.27933 | 15.32195 | 36061 ft | 424 kts | 319° |
| 2026-05-04 12:31 | 46.32439 | 15.26788 | 36057 ft | 424 kts | 319° |
| 2026-05-04 12:32 | 46.39243 | 15.18608 | 36054 ft | 424 kts | 319° |
| 2026-05-04 12:33 | 46.43771 | 15.13147 | 36056 ft | 424 kts | 319° |
| 2026-05-04 12:33 | 46.48291 | 15.07668 | 36059 ft | 423 kts | 319° |
| 2026-05-04 12:34 | 46.52809 | 15.02186 | 36048 ft | 424 kts | 318° |
| 2026-05-04 12:34 | 46.57328 | 14.96671 | 36034 ft | 425 kts | 318° |
| 2026-05-04 12:35 | 46.61120 | 14.92044 | 36038 ft | 425 kts | 319° |
| 2026-05-04 12:35 | 46.65839 | 14.86817 | 36038 ft | 427 kts | 323° |
| 2026-05-04 12:36 | 46.70709 | 14.81848 | 36045 ft | 428 kts | 323° |
| 2026-05-04 12:36 | 46.75569 | 14.76851 | 36048 ft | 428 kts | 322° |
| 2026-05-04 12:37 | 46.80367 | 14.71798 | 36040 ft | 428 kts | 322° |
| 2026-05-04 12:37 | 46.85206 | 14.66627 | 36034 ft | 428 kts | 322° |
| 2026-05-04 12:38 | 46.89984 | 14.61526 | 36048 ft | 428 kts | 322° |
| 2026-05-04 12:38 | 46.94799 | 14.56395 | 36037 ft | 429 kts | 322° |
| 2026-05-04 12:39 | 46.99617 | 14.51250 | 36027 ft | 428 kts | 322° |
| 2026-05-04 12:39 | 47.04424 | 14.46098 | 36042 ft | 428 kts | 321° |
| 2026-05-04 12:40 | 47.09233 | 14.40930 | 36027 ft | 429 kts | 321° |
| 2026-05-04 12:40 | 47.14045 | 14.35745 | 36029 ft | 429 kts | 321° |
| 2026-05-04 12:41 | 47.18853 | 14.30558 | 36018 ft | 429 kts | 321° |
| 2026-05-04 12:41 | 47.23664 | 14.25353 | 36012 ft | 429 kts | 321° |
| 2026-05-04 12:42 | 47.28316 | 14.19871 | 36018 ft | 428 kts | 317° |
| 2026-05-04 12:42 | 47.32857 | 14.14201 | 36004 ft | 428 kts | 317° |
| 2026-05-04 12:43 | 47.37414 | 14.08527 | 36000 ft | 429 kts | 318° |
| 2026-05-04 12:43 | 47.42009 | 14.02891 | 35993 ft | 430 kts | 318° |
| 2026-05-04 12:44 | 47.46626 | 13.97259 | 35984 ft | 430 kts | 318° |
| 2026-05-04 12:44 | 47.51235 | 13.91603 | 35981 ft | 431 kts | 318° |
| 2026-05-04 12:45 | 47.55844 | 13.85923 | 35974 ft | 431 kts | 318° |
| 2026-05-04 12:45 | 47.60457 | 13.80228 | 35976 ft | 432 kts | 317° |
| 2026-05-04 12:46 | 47.65063 | 13.74525 | 35983 ft | 431 kts | 317° |
| 2026-05-04 12:46 | 47.69664 | 13.68817 | 35985 ft | 431 kts | 317° |
| 2026-05-04 12:47 | 47.74266 | 13.63096 | 35983 ft | 431 kts | 317° |
| 2026-05-04 12:47 | 47.78854 | 13.57373 | 35981 ft | 431 kts | 317° |
| 2026-05-04 12:48 | 47.83443 | 13.51632 | 35973 ft | 431 kts | 317° |
| 2026-05-04 12:48 | 47.88037 | 13.45879 | 35981 ft | 431 kts | 317° |
| 2026-05-04 12:49 | 47.92622 | 13.40121 | 35981 ft | 431 kts | 317° |
| 2026-05-04 12:49 | 47.97204 | 13.34352 | 35979 ft | 431 kts | 317° |
| 2026-05-04 12:50 | 48.01781 | 13.28579 | 35976 ft | 431 kts | 317° |
| 2026-05-04 12:50 | 48.06362 | 13.22793 | 35965 ft | 432 kts | 316° |
| 2026-05-04 12:51 | 48.10948 | 13.16975 | 35961 ft | 433 kts | 316° |
| 2026-05-04 12:51 | 48.15535 | 13.11143 | 35961 ft | 433 kts | 316° |
| 2026-05-04 12:52 | 48.20116 | 13.05292 | 35964 ft | 433 kts | 316° |
| 2026-05-04 12:52 | 48.25127 | 13.00248 | 35967 ft | 439 kts | 332° |
| 2026-05-04 12:53 | 48.30763 | 12.96660 | 35974 ft | 440 kts | 334° |
| 2026-05-04 12:53 | 48.36403 | 12.93048 | 35968 ft | 441 kts | 333° |
| 2026-05-04 12:54 | 48.42052 | 12.89419 | 35971 ft | 442 kts | 333° |
| 2026-05-04 12:54 | 48.47700 | 12.85788 | 35969 ft | 441 kts | 333° |
| 2026-05-04 12:55 | 48.53348 | 12.82157 | 35966 ft | 441 kts | 333° |
| 2026-05-04 12:55 | 48.58991 | 12.78508 | 35965 ft | 441 kts | 333° |
| 2026-05-04 12:56 | 48.64598 | 12.74877 | 35976 ft | 441 kts | 333° |
| 2026-05-04 12:56 | 48.70240 | 12.71221 | 35977 ft | 441 kts | 333° |
| 2026-05-04 12:57 | 48.75879 | 12.67551 | 35979 ft | 440 kts | 331° |
| 2026-05-04 12:57 | 48.80926 | 12.62539 | 35979 ft | 431 kts | 314° |
| 2026-05-04 12:58 | 48.85323 | 12.56370 | 35981 ft | 430 kts | 314° |
| 2026-05-04 12:58 | 48.89731 | 12.50215 | 35978 ft | 430 kts | 314° |
| 2026-05-04 12:59 | 48.94143 | 12.44060 | 35979 ft | 430 kts | 314° |
| 2026-05-04 12:59 | 48.98540 | 12.37888 | 35982 ft | 430 kts | 313° |
| 2026-05-04 13:00 | 49.02932 | 12.31682 | 35978 ft | 431 kts | 313° |
| 2026-05-04 13:00 | 49.07330 | 12.25469 | 35980 ft | 431 kts | 313° |
| 2026-05-04 13:01 | 49.11725 | 12.19240 | 35993 ft | 431 kts | 313° |
| 2026-05-04 13:01 | 49.16102 | 12.12989 | 36000 ft | 430 kts | 313° |
| 2026-05-04 13:02 | 49.20479 | 12.06751 | 35998 ft | 430 kts | 313° |
| 2026-05-04 13:02 | 49.24855 | 12.00516 | 35993 ft | 430 kts | 313° |
| 2026-05-04 13:03 | 49.29231 | 11.94260 | 35993 ft | 431 kts | 313° |
| 2026-05-04 13:03 | 49.33617 | 11.87993 | 35991 ft | 431 kts | 313° |
| 2026-05-04 13:04 | 49.37994 | 11.81706 | 35998 ft | 431 kts | 313° |
| 2026-05-04 13:04 | 49.42360 | 11.75407 | 35993 ft | 431 kts | 313° |
| 2026-05-04 13:05 | 49.46718 | 11.69099 | 36005 ft | 430 kts | 313° |
| 2026-05-04 13:05 | 49.51077 | 11.62786 | 35999 ft | 430 kts | 313° |
| 2026-05-04 13:06 | 49.55431 | 11.56459 | 35994 ft | 430 kts | 313° |
| 2026-05-04 13:06 | 49.59712 | 11.50035 | 35987 ft | 429 kts | 310° |
| 2026-05-04 13:07 | 49.63839 | 11.43399 | 36007 ft | 429 kts | 309° |
| 2026-05-04 13:07 | 49.67948 | 11.36725 | 35999 ft | 429 kts | 310° |
| 2026-05-04 13:08 | 49.72095 | 11.30084 | 35996 ft | 430 kts | 310° |
| 2026-05-04 13:08 | 49.76257 | 11.23455 | 35994 ft | 430 kts | 310° |
| 2026-05-04 13:09 | 49.80423 | 11.16807 | 35992 ft | 430 kts | 310° |
| 2026-05-04 13:09 | 49.84591 | 11.10158 | 35978 ft | 430 kts | 310° |
| 2026-05-04 13:10 | 49.88757 | 11.03495 | 35986 ft | 430 kts | 310° |
| 2026-05-04 13:10 | 49.92916 | 10.96827 | 35994 ft | 430 kts | 310° |
| 2026-05-04 13:11 | 49.97068 | 10.90143 | 36001 ft | 429 kts | 309° |
| 2026-05-04 13:11 | 50.01203 | 10.83455 | 35996 ft | 429 kts | 309° |
| 2026-05-04 13:12 | 50.05332 | 10.76756 | 35991 ft | 429 kts | 309° |
| 2026-05-04 13:12 | 50.09466 | 10.70047 | 35991 ft | 429 kts | 309° |
| 2026-05-04 13:13 | 50.13597 | 10.63328 | 35987 ft | 429 kts | 309° |
| 2026-05-04 13:13 | 50.17713 | 10.56596 | 36016 ft | 429 kts | 309° |
| 2026-05-04 13:14 | 50.21820 | 10.49864 | 36004 ft | 428 kts | 309° |
| 2026-05-04 13:14 | 50.25942 | 10.43133 | 35997 ft | 428 kts | 309° |
| 2026-05-04 13:15 | 50.30053 | 10.36388 | 35991 ft | 428 kts | 309° |
| 2026-05-04 13:15 | 50.34152 | 10.29624 | 35983 ft | 428 kts | 308° |
| 2026-05-04 13:16 | 50.38158 | 10.22739 | 35979 ft | 427 kts | 306° |
| 2026-05-04 13:16 | 50.41985 | 10.15651 | 35991 ft | 426 kts | 305° |
| 2026-05-04 13:17 | 50.45787 | 10.08522 | 35992 ft | 426 kts | 305° |
| 2026-05-04 13:17 | 50.48973 | 10.02617 | 35991 ft | 427 kts | 306° |
| 2026-05-04 13:18 | 50.52833 | 9.95526 | 35987 ft | 427 kts | 306° |
| 2026-05-04 13:18 | 50.56691 | 9.88429 | 35986 ft | 427 kts | 305° |
| 2026-05-04 13:19 | 50.60528 | 9.81320 | 36006 ft | 426 kts | 305° |
| 2026-05-04 13:19 | 50.64363 | 9.74196 | 35995 ft | 427 kts | 305° |
| 2026-05-04 13:20 | 50.68201 | 9.67056 | 35990 ft | 427 kts | 305° |
| 2026-05-04 13:20 | 50.72033 | 9.59906 | 35987 ft | 427 kts | 305° |
| 2026-05-04 13:21 | 50.75859 | 9.52741 | 35985 ft | 427 kts | 305° |
| 2026-05-04 13:21 | 50.79680 | 9.45562 | 35984 ft | 427 kts | 305° |
| 2026-05-04 13:22 | 50.83488 | 9.38371 | 35993 ft | 426 kts | 304° |
| 2026-05-04 13:22 | 50.87298 | 9.31178 | 35988 ft | 426 kts | 304° |
| 2026-05-04 13:23 | 50.91109 | 9.23976 | 35976 ft | 426 kts | 304° |
| 2026-05-04 13:23 | 50.94914 | 9.16762 | 35972 ft | 426 kts | 304° |
| 2026-05-04 13:24 | 50.98704 | 9.09534 | 35995 ft | 426 kts | 304° |
| 2026-05-04 13:24 | 51.02485 | 9.02298 | 35988 ft | 426 kts | 304° |
| 2026-05-04 13:25 | 51.08156 | 8.91443 | 35990 ft | 424 kts | 304° |
| 2026-05-04 13:25 | 51.11896 | 8.84255 | 35979 ft | 423 kts | 304° |
| 2026-05-04 13:26 | 51.15595 | 8.76958 | 35978 ft | 423 kts | 302° |
| 2026-05-04 13:26 | 51.19148 | 8.69496 | 35985 ft | 422 kts | 301° |
| 2026-05-04 13:27 | 51.22669 | 8.61998 | 35983 ft | 422 kts | 302° |
| 2026-05-04 13:27 | 51.26220 | 8.54510 | 35994 ft | 423 kts | 301° |
| 2026-05-04 13:28 | 51.29783 | 8.47009 | 35987 ft | 425 kts | 301° |
| 2026-05-04 13:28 | 51.33354 | 8.39490 | 35973 ft | 425 kts | 301° |
| 2026-05-04 13:29 | 51.36946 | 8.31957 | 35976 ft | 427 kts | 302° |
| 2026-05-04 13:29 | 51.40542 | 8.24407 | 35974 ft | 426 kts | 301° |
| 2026-05-04 13:30 | 51.44091 | 8.16823 | 35991 ft | 425 kts | 301° |
| 2026-05-04 13:30 | 51.47629 | 8.09209 | 35991 ft | 426 kts | 301° |
| 2026-05-04 13:31 | 51.51181 | 8.01582 | 35986 ft | 427 kts | 301° |
| 2026-05-04 13:31 | 51.54731 | 7.93959 | 36006 ft | 426 kts | 301° |
| 2026-05-04 13:32 | 51.58264 | 7.86336 | 36003 ft | 425 kts | 301° |
| 2026-05-04 13:32 | 51.61783 | 7.78707 | 36003 ft | 425 kts | 300° |
| 2026-05-04 13:33 | 51.65303 | 7.71058 | 36015 ft | 426 kts | 301° |
| 2026-05-04 13:33 | 51.68828 | 7.63378 | 36014 ft | 427 kts | 300° |
| 2026-05-04 13:34 | 51.72321 | 7.55636 | 36017 ft | 426 kts | 299° |
| 2026-05-04 13:34 | 51.75603 | 7.47705 | 36017 ft | 424 kts | 297° |
| 2026-05-04 13:35 | 51.80410 | 7.35706 | 36019 ft | 424 kts | 297° |
| 2026-05-04 13:36 | 51.83647 | 7.27725 | 36058 ft | 425 kts | 297° |
| 2026-05-04 13:36 | 51.86903 | 7.19736 | 36061 ft | 426 kts | 297° |
| 2026-05-04 13:37 | 51.90155 | 7.11737 | 36061 ft | 426 kts | 297° |
| 2026-05-04 13:37 | 51.93403 | 7.03717 | 36059 ft | 426 kts | 297° |
| 2026-05-04 13:38 | 51.96668 | 6.95607 | 36062 ft | 426 kts | 297° |
| 2026-05-04 13:38 | 51.99866 | 6.87633 | 36063 ft | 425 kts | 297° |
| 2026-05-04 13:39 | 52.03050 | 6.79685 | 36074 ft | 426 kts | 297° |
| 2026-05-04 13:39 | 52.06316 | 6.71510 | 36073 ft | 426 kts | 297° |
| 2026-05-04 13:40 | 52.09542 | 6.63398 | 36068 ft | 426 kts | 297° |
| 2026-05-04 13:40 | 52.12733 | 6.55341 | 36082 ft | 425 kts | 297° |
| 2026-05-04 13:41 | 52.15926 | 6.47262 | 36082 ft | 424 kts | 297° |
| 2026-05-04 13:41 | 52.19114 | 6.39171 | 36098 ft | 425 kts | 297° |
| 2026-05-04 13:42 | 52.23902 | 6.26980 | 36089 ft | 426 kts | 296° |
| 2026-05-04 13:42 | 52.26485 | 6.18409 | 36091 ft | 420 kts | 289° |
| 2026-05-04 13:43 | 52.28875 | 6.09710 | 36087 ft | 420 kts | 289° |
| 2026-05-04 13:43 | 52.31277 | 6.01006 | 36088 ft | 420 kts | 289° |
| 2026-05-04 13:44 | 52.33661 | 5.92290 | 36107 ft | 421 kts | 289° |
| 2026-05-04 13:44 | 52.36044 | 5.83521 | 36107 ft | 422 kts | 289° |
| 2026-05-04 13:45 | 52.38419 | 5.74741 | 36120 ft | 422 kts | 289° |
| 2026-05-04 13:45 | 52.40795 | 5.65970 | 36128 ft | 421 kts | 289° |
| 2026-05-04 13:46 | 52.43158 | 5.57214 | 36144 ft | 420 kts | 289° |
| 2026-05-04 13:46 | 52.45505 | 5.48444 | 36142 ft | 420 kts | 289° |
| 2026-05-04 13:47 | 52.47851 | 5.39645 | 36157 ft | 422 kts | 289° |
| 2026-05-04 13:47 | 52.50196 | 5.30822 | 36153 ft | 422 kts | 289° |
| 2026-05-04 13:48 | 52.52541 | 5.21991 | 36151 ft | 422 kts | 289° |
| 2026-05-04 13:48 | 52.54883 | 5.13158 | 36148 ft | 422 kts | 289° |
| 2026-05-04 13:49 | 52.57210 | 5.04310 | 36146 ft | 422 kts | 289° |
| 2026-05-04 13:49 | 52.59524 | 4.95447 | 36162 ft | 422 kts | 289° |
| 2026-05-04 13:50 | 52.61841 | 4.86547 | 36163 ft | 423 kts | 289° |
| 2026-05-04 13:50 | 52.64159 | 4.77641 | 36163 ft | 423 kts | 289° |
| 2026-05-04 13:51 | 52.66478 | 4.68715 | 35971 ft | 422 kts | 289° |
| 2026-05-04 13:51 | 52.68778 | 4.59802 | 36003 ft | 423 kts | 289° |
| 2026-05-04 13:52 | 52.72212 | 4.46395 | 36005 ft | 423 kts | 289° |
| 2026-05-04 13:53 | 52.74492 | 4.37447 | 36003 ft | 423 kts | 289° |
| 2026-05-04 13:53 | 52.77267 | 4.28898 | 36008 ft | 426 kts | 295° |
| 2026-05-04 13:54 | 52.81644 | 4.16023 | 36013 ft | 426 kts | 295° |
| 2026-05-04 13:55 | 52.85963 | 4.03234 | 36024 ft | 426 kts | 295° |
| 2026-05-04 13:55 | 52.90279 | 3.90324 | 36008 ft | 428 kts | 295° |
| 2026-05-04 13:56 | 52.93168 | 3.81689 | 36022 ft | 429 kts | 295° |
| 2026-05-04 13:57 | 52.97485 | 3.68699 | 36019 ft | 429 kts | 295° |
| 2026-05-04 13:58 | 53.03230 | 3.51336 | 36033 ft | 430 kts | 296° |
| 2026-05-04 13:58 | 53.07529 | 3.38228 | 36020 ft | 431 kts | 295° |
| 2026-05-04 13:59 | 53.09807 | 3.30790 | 36020 ft | 429 kts | 288° |
| 2026-05-04 14:00 | 53.11956 | 3.16527 | 36014 ft | 426 kts | 280° |
| 2026-05-04 14:00 | 53.13859 | 3.02078 | 36031 ft | 426 kts | 280° |
| 2026-05-04 14:01 | 53.15117 | 2.92420 | 36019 ft | 427 kts | 280° |
| 2026-05-04 14:02 | 53.16971 | 2.77861 | 36021 ft | 429 kts | 280° |
| 2026-05-04 14:02 | 53.18225 | 2.68136 | 36025 ft | 430 kts | 280° |
| 2026-05-04 14:03 | 53.19478 | 2.58392 | 36032 ft | 430 kts | 280° |
| 2026-05-04 14:03 | 53.20722 | 2.48630 | 36030 ft | 431 kts | 280° |
| 2026-05-04 14:04 | 53.22570 | 2.33935 | 36024 ft | 432 kts | 280° |
| 2026-05-04 14:04 | 53.23803 | 2.24112 | 36030 ft | 433 kts | 280° |
| 2026-05-04 14:05 | 53.25629 | 2.09319 | 36031 ft | 434 kts | 280° |
| 2026-05-04 14:06 | 53.26840 | 1.99425 | 36038 ft | 435 kts | 280° |
| 2026-05-04 14:06 | 53.28069 | 1.89522 | 36036 ft | 436 kts | 281° |
| 2026-05-04 14:07 | 53.29291 | 1.79586 | 36038 ft | 437 kts | 280° |
| 2026-05-04 14:07 | 53.30488 | 1.69628 | 36040 ft | 437 kts | 280° |
| 2026-05-04 14:08 | 53.31673 | 1.59652 | 36048 ft | 437 kts | 280° |
| 2026-05-04 14:08 | 53.32845 | 1.49677 | 36044 ft | 438 kts | 281° |
| 2026-05-04 14:09 | 53.34976 | 1.34784 | 36038 ft | 440 kts | 283° |
| 2026-05-04 14:10 | 53.37187 | 1.19870 | 36040 ft | 440 kts | 283° |
| 2026-05-04 14:10 | 53.38610 | 1.09888 | 36042 ft | 441 kts | 283° |
| 2026-05-04 14:11 | 53.40015 | 0.99900 | 36044 ft | 441 kts | 283° |
| 2026-05-04 14:11 | 53.42130 | 0.84848 | 36040 ft | 443 kts | 283° |
| 2026-05-04 14:12 | 53.43545 | 0.74772 | 36044 ft | 444 kts | 283° |
| 2026-05-04 14:13 | 53.45648 | 0.59606 | 36045 ft | 445 kts | 282° |
| 2026-05-04 14:13 | 53.47040 | 0.49474 | 36049 ft | 446 kts | 283° |
| 2026-05-04 14:14 | 53.48424 | 0.39316 | 36051 ft | 447 kts | 283° |
| 2026-05-04 14:14 | 53.50491 | 0.24029 | 36056 ft | 448 kts | 283° |
| 2026-05-04 14:15 | 53.53226 | 0.03580 | 36065 ft | 449 kts | 283° |
| 2026-05-04 14:16 | 53.55256 | -0.11790 | 36070 ft | 448 kts | 283° |
| 2026-05-04 14:17 | 53.57263 | -0.27177 | 36072 ft | 450 kts | 283° |
| 2026-05-04 14:18 | 53.59259 | -0.42625 | 36076 ft | 450 kts | 282° |
| 2026-05-04 14:19 | 53.61890 | -0.63251 | 36077 ft | 451 kts | 282° |
| 2026-05-04 14:19 | 53.63195 | -0.73573 | 36073 ft | 450 kts | 282° |
| 2026-05-04 14:20 | 53.64480 | -0.83902 | 36070 ft | 450 kts | 282° |
| 2026-05-04 14:20 | 53.65763 | -0.94231 | 36066 ft | 450 kts | 282° |
| 2026-05-04 14:21 | 53.67679 | -1.09756 | 35773 ft | 454 kts | 282° |
| 2026-05-04 14:21 | 53.68322 | -1.15036 | 34741 ft | 464 kts | 283° |
| 2026-05-04 14:21 | 53.68974 | -1.20391 | 33877 ft | 469 kts | 283° |
| 2026-05-04 14:22 | 53.69627 | -1.25766 | 33294 ft | 465 kts | 283° |
| 2026-05-04 14:22 | 53.70486 | -1.31013 | 32203 ft | 467 kts | 295° |
| 2026-05-04 14:22 | 53.72128 | -1.35736 | 31192 ft | 466 kts | 313° |
| 2026-05-04 14:22 | 53.74412 | -1.39475 | 30795 ft | 450 kts | 326° |
| 2026-05-04 14:23 | 53.79423 | -1.45506 | 29753 ft | 436 kts | 328° |
| 2026-05-04 14:23 | 53.81899 | -1.48427 | 29117 ft | 432 kts | 328° |
| 2026-05-04 14:23 | 53.84355 | -1.51311 | 28497 ft | 428 kts | 328° |
| 2026-05-04 14:24 | 53.86789 | -1.54176 | 27881 ft | 424 kts | 327° |
| 2026-05-04 14:24 | 53.89199 | -1.57024 | 27283 ft | 421 kts | 327° |
| 2026-05-04 14:24 | 53.91590 | -1.59860 | 26690 ft | 418 kts | 327° |
| 2026-05-04 14:24 | 53.93960 | -1.62684 | 26101 ft | 415 kts | 327° |
| 2026-05-04 14:25 | 53.96307 | -1.65490 | 25534 ft | 411 kts | 327° |
| 2026-05-04 14:25 | 54.00955 | -1.71052 | 24449 ft | 405 kts | 326° |
| 2026-05-04 14:25 | 54.03246 | -1.73794 | 23899 ft | 400 kts | 326° |
| 2026-05-04 14:26 | 54.05503 | -1.76502 | 22934 ft | 394 kts | 326° |
| 2026-05-04 14:26 | 54.07722 | -1.79167 | 22446 ft | 387 kts | 326° |
| 2026-05-04 14:26 | 54.09909 | -1.81798 | 21983 ft | 383 kts | 325° |
| 2026-05-04 14:26 | 54.12177 | -1.84107 | 21480 ft | 379 kts | 337° |
| 2026-05-04 14:27 | 54.14643 | -1.85404 | 21002 ft | 375 kts | 351° |
| 2026-05-04 14:27 | 54.17236 | -1.85645 | 20504 ft | 373 kts | 4° |
| 2026-05-04 14:27 | 54.19791 | -1.84961 | 20012 ft | 371 kts | 10° |
| 2026-05-04 14:27 | 54.22322 | -1.84157 | 19522 ft | 369 kts | 9° |
| 2026-05-04 14:28 | 54.24832 | -1.83363 | 19029 ft | 361 kts | 9° |
| 2026-05-04 14:28 | 54.27260 | -1.82597 | 18577 ft | 350 kts | 9° |
| 2026-05-04 14:28 | 54.29655 | -1.81843 | 18083 ft | 350 kts | 9° |
| 2026-05-04 14:28 | 54.32047 | -1.81093 | 17612 ft | 348 kts | 9° |
| 2026-05-04 14:29 | 54.36790 | -1.79601 | 16715 ft | 345 kts | 9° |
| 2026-05-04 14:29 | 54.41489 | -1.78117 | 15764 ft | 344 kts | 9° |
| 2026-05-04 14:30 | 54.43874 | -1.77366 | 14990 ft | 353 kts | 8° |
| 2026-05-04 14:30 | 54.46304 | -1.76604 | 14454 ft | 352 kts | 8° |
| 2026-05-04 14:30 | 54.51042 | -1.75102 | 12845 ft | 342 kts | 8° |
| 2026-05-04 14:31 | 54.53361 | -1.74364 | 12231 ft | 333 kts | 8° |
| 2026-05-04 14:31 | 54.57738 | -1.72961 | 11250 ft | 313 kts | 8° |
| 2026-05-04 14:32 | 54.61943 | -1.71616 | 10228 ft | 296 kts | 8° |
| 2026-05-04 14:32 | 54.63939 | -1.70974 | 9736 ft | 288 kts | 8° |
| 2026-05-04 14:32 | 54.65882 | -1.70350 | 9368 ft | 276 kts | 8° |
| 2026-05-04 14:32 | 54.67700 | -1.69764 | 9192 ft | 258 kts | 8° |
| 2026-05-04 14:33 | 54.69493 | -1.69186 | 8553 ft | 270 kts | 8° |
| 2026-05-04 14:33 | 54.71363 | -1.68583 | 8162 ft | 270 kts | 8° |
| 2026-05-04 14:33 | 54.73170 | -1.67971 | 7774 ft | 260 kts | 10° |
| 2026-05-04 14:33 | 54.74905 | -1.67305 | 7400 ft | 252 kts | 10° |
| 2026-05-04 14:34 | 54.76572 | -1.66470 | 7018 ft | 250 kts | 24° |
| 2026-05-04 14:34 | 54.78049 | -1.64860 | 6656 ft | 252 kts | 32° |
| 2026-05-04 14:34 | 54.79494 | -1.63189 | 6523 ft | 250 kts | 33° |
| 2026-05-04 14:34 | 54.80937 | -1.61514 | 6410 ft | 248 kts | 31° |
| 2026-05-04 14:35 | 54.82364 | -1.59857 | 6264 ft | 246 kts | 31° |
| 2026-05-04 14:35 | 54.83787 | -1.58206 | 6145 ft | 246 kts | 31° |
| 2026-05-04 14:35 | 54.85213 | -1.56554 | 6012 ft | 246 kts | 31° |
| 2026-05-04 14:35 | 54.86634 | -1.54905 | 5877 ft | 246 kts | 31° |
| 2026-05-04 14:36 | 54.88051 | -1.53256 | 5757 ft | 245 kts | 31° |
| 2026-05-04 14:36 | 54.89467 | -1.51607 | 5625 ft | 245 kts | 31° |
| 2026-05-04 14:36 | 54.90877 | -1.49960 | 5493 ft | 244 kts | 31° |
| 2026-05-04 14:36 | 54.92285 | -1.48318 | 5364 ft | 243 kts | 31° |
| 2026-05-04 14:37 | 54.93690 | -1.46678 | 5233 ft | 243 kts | 31° |
| 2026-05-04 14:37 | 54.95091 | -1.45036 | 5106 ft | 243 kts | 31° |
| 2026-05-04 14:37 | 54.96491 | -1.43398 | 4978 ft | 242 kts | 31° |
| 2026-05-04 14:37 | 54.97889 | -1.41763 | 4852 ft | 241 kts | 31° |
| 2026-05-04 14:38 | 54.99280 | -1.40130 | 4723 ft | 241 kts | 31° |
| 2026-05-04 14:38 | 55.00668 | -1.38489 | 4598 ft | 242 kts | 31° |
| 2026-05-04 14:38 | 55.02063 | -1.36828 | 4459 ft | 243 kts | 31° |
| 2026-05-04 14:38 | 55.03478 | -1.35255 | 4338 ft | 239 kts | 19° |
| 2026-05-04 14:39 | 55.05071 | -1.34827 | 4203 ft | 231 kts | 348° |
| 2026-05-04 14:39 | 55.06637 | -1.35393 | 3981 ft | 229 kts | 342° |
| 2026-05-04 14:39 | 55.08162 | -1.36126 | 3724 ft | 226 kts | 340° |
| 2026-05-04 14:40 | 55.10868 | -1.38362 | 3214 ft | 211 kts | 299° |
| 2026-05-04 14:40 | 55.11135 | -1.40780 | 2956 ft | 207 kts | 257° |
| 2026-05-04 14:40 | 55.10617 | -1.43107 | 2701 ft | 206 kts | 246° |
| 2026-05-04 14:40 | 55.10018 | -1.45378 | 2443 ft | 205 kts | 246° |
| 2026-05-04 14:41 | 55.09423 | -1.47634 | 2188 ft | 204 kts | 246° |
| 2026-05-04 14:41 | 55.08838 | -1.49857 | 2031 ft | 198 kts | 245° |
| 2026-05-04 14:41 | 55.07778 | -1.53888 | 1916 ft | 168 kts | 245° |
| 2026-05-04 14:42 | 55.06836 | -1.57463 | 1566 ft | 171 kts | 245° |
| 2026-05-04 14:42 | 55.06322 | -1.59413 | 1325 ft | 181 kts | 243° |
| 2026-05-04 14:42 | 55.05805 | -1.61369 | 1083 ft | 171 kts | 243° |
| 2026-05-04 14:43 | 55.05331 | -1.63163 | 848 ft | 153 kts | 244° |
| 2026-05-04 14:43 | 55.05042 | -1.64256 | 695 ft | 144 kts | 247° |
| 2026-05-04 14:43 | 55.04635 | -1.65794 | 515 ft | 137 kts | 245° |
| 2026-05-04 14:43 | 55.04239 | -1.67290 | 323 ft | 135 kts | 246° |
| 2026-05-04 14:44 | 55.03867 | -1.68696 | 250 ft | 106 kts | 245° |
| 2026-05-04 14:44 | 55.03682 | -1.69389 | 256 ft | 28 kts | 244° |
| 2026-05-04 14:44 | 55.03633 | -1.69579 | 258 ft | 13 kts | 245° |
| 2026-05-04 14:44 | 55.03597 | -1.69717 | 259 ft | 12 kts | 246° |
| 2026-05-04 14:45 | 55.03580 | -1.69863 | 261 ft | 14 kts | 271° |
| 2026-05-04 14:45 | 55.03586 | -1.70038 | 262 ft | 14 kts | 274° |
| 2026-05-04 14:45 | 55.03595 | -1.70199 | 264 ft | 13 kts | 276° |
| 2026-05-04 14:45 | 55.03600 | -1.70349 | 267 ft | 12 kts | 272° |
| 2026-05-04 14:46 | 55.03595 | -1.70503 | 267 ft | 13 kts | 264° |
| 2026-05-04 14:46 | 55.03603 | -1.70625 | 267 ft | 10 kts | 323° |
| 2026-05-04 14:46 | 55.03645 | -1.70643 | 267 ft | 1 kts | 349° |
| 2026-05-04 14:46 | 55.03651 | -1.70645 | 267 ft | 0 kts | 349° |
| 2026-05-04 14:47 | 55.03654 | -1.70646 | 267 ft | 1 kts | 349° |
| 2026-05-04 14:47 | 55.03657 | -1.70647 | 267 ft | 1 kts | 349° |